createdAt,value
2022-09-18T00:01:34.516Z,99840.00
2022-09-18T00:04:06.582Z,99845.66
2022-09-18T00:06:38.484Z,99835.88
2022-09-18T00:09:13.671Z,99844.25
2022-09-18T00:11:46.254Z,99851.53
2022-09-18T00:14:23.276Z,99839.19
2022-09-18T00:16:51.089Z,99835.88
2022-09-18T00:19:24.528Z,99835.88
2022-09-18T00:21:52.111Z,99839.97
2022-09-18T00:24:22.145Z,99832.63
2022-09-18T00:26:49.247Z,99842.09
2022-09-18T00:29:18.137Z,99836.19
2022-09-18T00:31:45.625Z,99837.28
2022-09-18T00:34:15.123Z,99837.22
2022-09-18T00:36:43.778Z,99841.63
2022-09-18T00:39:12.399Z,99843.31
2022-09-18T00:41:42.649Z,99844.28
2022-09-18T00:45:03.091Z,99844.28
2022-09-18T00:47:44.147Z,99842.25
2022-09-18T00:50:24.512Z,99845.88
2022-09-18T00:53:03.549Z,99846.09
2022-09-18T00:55:42.505Z,99849.41
2022-09-18T00:58:10.313Z,99847.75
2022-09-18T01:00:37.708Z,99843.91
2022-09-18T01:03:07.399Z,99853.28
2022-09-18T01:06:19.842Z,99839.63
2022-09-18T01:09:11.787Z,99843.94
2022-09-18T01:11:54.111Z,99845.19
2022-09-18T01:14:41.662Z,99845.88
2022-09-18T01:18:00.014Z,99839.13
2022-09-18T01:21:08.748Z,99845.97
2022-09-18T01:24:10.321Z,99844.75
2022-09-18T01:27:21.707Z,99848.06
2022-09-18T01:30:06.070Z,99852.22
2022-09-18T01:32:54.218Z,99852.78
2022-09-18T01:35:41.420Z,99846.84
2022-09-18T01:38:37.225Z,99861.19
2022-09-18T01:41:29.047Z,99854.56
2022-09-18T01:44:37.991Z,99864.91
2022-09-18T01:47:18.428Z,99858.59
2022-09-18T01:49:53.367Z,99864.47
2022-09-18T01:53:05.881Z,99869.16
2022-09-18T01:55:35.510Z,99872.59
2022-09-18T01:58:22.885Z,99865.44
2022-09-18T02:01:03.163Z,99873.44
2022-09-18T02:03:42.072Z,99862.97
2022-09-18T02:06:22.287Z,99862.16
2022-09-18T02:08:53.285Z,99865.34
2022-09-18T02:11:21.845Z,99867.53
2022-09-18T02:14:17.706Z,99871.50
2022-09-18T02:16:59.411Z,99874.53
2022-09-18T02:19:41.137Z,99868.50
2022-09-18T02:22:15.634Z,99871.38
2022-09-18T02:24:46.641Z,99872.03
2022-09-18T02:27:15.225Z,99878.53
2022-09-18T02:29:45.561Z,99883.34
2022-09-18T02:32:18.105Z,99884.47
2022-09-18T02:34:45.505Z,99880.47
2022-09-18T02:37:43.872Z,99877.31
2022-09-18T02:40:50.143Z,99870.69
2022-09-18T02:43:52.074Z,99877.00
2022-09-18T02:46:54.066Z,99869.19
2022-09-18T02:50:28.774Z,99874.53
2022-09-18T02:53:38.672Z,99883.22
2022-09-18T02:56:51.345Z,99880.47
2022-09-18T03:00:36.016Z,99882.94
2022-09-18T03:03:36.468Z,99882.09
2022-09-18T03:06:06.333Z,99895.31
2022-09-18T03:08:33.965Z,99886.38
2022-09-18T03:11:14.467Z,99894.22
2022-09-18T03:13:44.124Z,99895.06
2022-09-18T03:16:44.303Z,99896.84
2022-09-18T03:19:32.588Z,99901.69
2022-09-18T03:22:02.676Z,99898.34
2022-09-18T03:27:19.386Z,99904.81
2022-09-18T03:29:55.732Z,99911.97
2022-09-18T03:32:31.594Z,99914.47
2022-09-18T03:34:58.761Z,99914.47
2022-09-18T03:37:25.753Z,99922.00
2022-09-18T03:39:53.934Z,99920.66
2022-09-18T03:42:20.971Z,99917.47
2022-09-18T03:44:48.362Z,99919.69
2022-09-18T03:47:20.611Z,99927.69
2022-09-18T03:49:48.096Z,99932.91
2022-09-18T03:52:15.208Z,99921.63
2022-09-18T03:54:42.559Z,99925.72
2022-09-18T03:57:09.845Z,99928.75
2022-09-18T03:59:36.926Z,99926.97
2022-09-18T04:02:04.313Z,99929.16
2022-09-18T04:04:32.213Z,99932.91
2022-09-18T04:07:04.796Z,99933.44
2022-09-18T04:09:32.217Z,99934.81
2022-09-18T04:12:11.169Z,99937.50
2022-09-18T04:14:56.043Z,99940.56
2022-09-18T04:17:41.710Z,99944.06
2022-09-18T04:20:14.760Z,99949.41
2022-09-18T04:22:41.735Z,99950.56
2022-09-18T04:25:10.000Z,99951.09
2022-09-18T04:27:37.638Z,99961.56
2022-09-18T04:30:05.505Z,99956.31
2022-09-18T04:32:32.522Z,99958.81
2022-09-18T04:35:01.588Z,99960.41
2022-09-18T04:37:31.734Z,99962.31
2022-09-18T04:40:07.999Z,99962.91
2022-09-18T04:42:35.493Z,99961.66
2022-09-18T04:45:05.628Z,99966.72
2022-09-18T04:47:32.567Z,99963.47
2022-09-18T04:49:59.487Z,99957.75
2022-09-18T04:52:26.548Z,99973.47
2022-09-18T04:54:53.475Z,99966.72
2022-09-18T04:57:20.632Z,99960.25
2022-09-18T04:59:47.706Z,99965.13
2022-09-18T05:02:14.702Z,99974.75
2022-09-18T05:04:41.695Z,99977.16
2022-09-18T05:07:12.005Z,99973.00
2022-09-18T05:09:38.968Z,99972.19
2022-09-18T05:12:06.819Z,99970.13
2022-09-18T05:14:34.154Z,99975.50
2022-09-18T05:17:01.900Z,99981.41
2022-09-18T05:19:28.849Z,99982.34
2022-09-18T05:21:55.877Z,99981.19
2022-09-18T05:24:23.001Z,99976.66
2022-09-18T05:26:50.447Z,99976.47
2022-09-18T05:29:17.389Z,99982.75
2022-09-18T05:31:44.499Z,99991.38
2022-09-18T05:34:11.550Z,99984.28
2022-09-18T05:36:38.490Z,99989.84
2022-09-18T05:39:05.459Z,100006.38
2022-09-18T05:41:35.343Z,100006.63
2022-09-18T05:44:02.805Z,100000.31
2022-09-18T05:46:32.576Z,100008.84
2022-09-18T05:49:00.045Z,100016.00
2022-09-18T05:51:27.095Z,100015.16
2022-09-18T05:53:54.036Z,100014.25
2022-09-18T05:56:21.403Z,100019.09
2022-09-18T05:58:48.426Z,100009.19
2022-09-18T06:01:15.372Z,100021.13
2022-09-18T06:03:42.481Z,100017.72
2022-09-18T06:06:09.544Z,100014.09
2022-09-18T06:08:39.198Z,100016.03
2022-09-18T06:11:06.769Z,100003.97
2022-09-18T06:13:33.850Z,100011.22
2022-09-18T06:16:01.046Z,100014.50
2022-09-18T06:18:28.143Z,100022.69
2022-09-18T06:20:58.974Z,100014.69
2022-09-18T06:23:29.194Z,100020.31
2022-09-18T06:26:05.978Z,100020.91
2022-09-18T06:28:34.257Z,100029.78
2022-09-18T06:31:03.598Z,100011.22
2022-09-18T06:33:30.672Z,100011.03
2022-09-18T06:35:58.050Z,100023.63
2022-09-18T06:38:25.104Z,100027.03
2022-09-18T06:40:54.507Z,100024.56
2022-09-18T06:43:22.005Z,100029.00
2022-09-18T06:45:58.322Z,100026.13
2022-09-18T06:48:25.731Z,100026.03
2022-09-18T06:50:55.040Z,100023.94
2022-09-18T06:53:23.393Z,100026.56
2022-09-18T06:55:50.736Z,100023.88
2022-09-18T06:58:21.664Z,100030.84
2022-09-18T07:00:48.823Z,100031.13
2022-09-18T07:03:17.866Z,100030.97
2022-09-18T07:05:45.638Z,100029.41
2022-09-18T07:08:16.489Z,100048.50
2022-09-18T07:10:43.519Z,100042.28
2022-09-18T07:13:11.927Z,100045.97
2022-09-18T07:15:39.026Z,100040.91
2022-09-18T07:18:09.694Z,100036.09
2022-09-18T07:20:36.757Z,100043.38
2022-09-18T07:23:06.839Z,100037.59
2022-09-18T07:25:43.184Z,100039.00
2022-09-18T07:28:15.999Z,100043.31
2022-09-18T07:30:43.540Z,100042.72
2022-09-18T07:33:11.123Z,100040.94
2022-09-18T07:35:39.178Z,100044.81
2022-09-18T07:38:07.421Z,100053.63
2022-09-18T07:40:35.040Z,100036.06
2022-09-18T07:43:09.830Z,100037.00
2022-09-18T07:45:37.241Z,100041.13
2022-09-18T07:48:06.940Z,100037.53
2022-09-18T07:50:34.436Z,100031.31
2022-09-18T07:53:05.182Z,100033.31
2022-09-18T07:55:36.724Z,100038.72
2022-09-18T07:58:09.486Z,100050.59
2022-09-18T08:00:37.358Z,100036.88
2022-09-18T08:03:09.983Z,100036.69
2022-09-18T08:05:39.065Z,100034.09
2022-09-18T08:08:13.157Z,100041.31
2022-09-18T08:10:45.075Z,100039.16
2022-09-18T08:13:15.870Z,100041.75
2022-09-18T08:15:43.872Z,100035.19
2022-09-18T08:18:13.335Z,100043.13
2022-09-18T08:20:43.227Z,100045.97
2022-09-18T08:23:11.019Z,100042.84
2022-09-18T08:25:39.058Z,100045.88
2022-09-18T08:28:07.177Z,100038.03
2022-09-18T08:30:35.398Z,100038.78
2022-09-18T08:33:07.441Z,100049.63
2022-09-18T08:35:34.946Z,100047.47
2022-09-18T08:38:02.031Z,100030.75
2022-09-18T08:40:53.647Z,100046.94
2022-09-18T08:43:52.038Z,100037.47
2022-09-18T08:46:36.214Z,100044.78
2022-09-18T08:49:47.755Z,100042.50
2022-09-18T08:52:20.141Z,100040.50
2022-09-18T08:55:21.483Z,100049.00
2022-09-18T08:58:01.298Z,100052.88
2022-09-18T09:00:38.118Z,100034.50
2022-09-18T09:03:31.515Z,100037.41
2022-09-18T09:06:15.458Z,100040.91
2022-09-18T09:09:22.904Z,100033.94
2022-09-18T09:12:37.674Z,100051.19
2022-09-18T09:15:39.255Z,100034.88
2022-09-18T09:18:23.025Z,100043.75
2022-09-18T09:20:56.830Z,100038.19
2022-09-18T09:24:22.528Z,100034.59
2022-09-18T09:26:51.889Z,100035.28
2022-09-18T09:29:31.487Z,100031.38
2022-09-18T09:32:11.578Z,100034.28
2022-09-18T09:34:55.521Z,100037.66
2022-09-18T09:37:36.866Z,100044.69
2022-09-18T09:40:44.763Z,100049.81
2022-09-18T09:43:44.667Z,100041.75
2022-09-18T09:46:29.521Z,100044.97
2022-09-18T09:49:11.725Z,100041.59
2022-09-18T09:52:17.732Z,100053.91
2022-09-18T09:55:14.144Z,100044.81
2022-09-18T09:57:55.840Z,100043.59
2022-09-18T10:00:26.179Z,100036.75
2022-09-18T10:03:37.512Z,100027.94
2022-09-18T10:06:38.126Z,100036.09
2022-09-18T10:09:51.657Z,100026.44
2022-09-18T10:13:01.877Z,100045.22
2022-09-18T10:15:45.507Z,100022.31
2022-09-18T10:18:31.103Z,100034.53
2022-09-18T10:21:19.362Z,100027.94
2022-09-18T10:24:30.167Z,100034.53
2022-09-18T10:27:09.772Z,100024.81
2022-09-18T10:29:37.033Z,100039.78
2022-09-18T10:32:06.767Z,100041.91
2022-09-18T10:34:50.199Z,100038.81
2022-09-18T10:37:40.803Z,100043.72
2022-09-18T10:40:39.711Z,100030.50
2022-09-18T10:43:20.753Z,100023.28
2022-09-18T10:45:55.995Z,100024.19
2022-09-18T10:48:27.431Z,100012.84
2022-09-18T10:51:04.321Z,100013.88
2022-09-18T10:53:41.467Z,100004.09
2022-09-18T10:56:21.242Z,100022.94
2022-09-18T10:58:48.577Z,100012.28
2022-09-18T11:01:16.148Z,100016.72
2022-09-18T11:04:01.451Z,100026.88
2022-09-18T11:06:37.617Z,100004.53
2022-09-18T11:09:11.101Z,100015.59
2022-09-18T11:11:46.568Z,100004.47
2022-09-18T11:14:38.414Z,99996.78
2022-09-18T11:17:07.461Z,100001.78
2022-09-18T11:19:39.489Z,100006.38
2022-09-18T11:22:44.368Z,100005.34
2022-09-18T11:25:27.961Z,99998.03
2022-09-18T11:27:59.164Z,99999.00
2022-09-18T11:30:34.194Z,99999.06
2022-09-18T11:33:44.226Z,100005.47
2022-09-18T11:36:15.791Z,99991.84
2022-09-18T11:38:46.791Z,99998.53
2022-09-18T11:41:33.461Z,99994.97
2022-09-18T11:44:33.790Z,100000.53
2022-09-18T11:47:23.290Z,100005.88
2022-09-18T11:50:09.311Z,100012.78
2022-09-18T11:53:04.236Z,100006.50
2022-09-18T11:56:07.364Z,100010.22
2022-09-18T11:59:11.963Z,100000.31
2022-09-18T12:02:00.609Z,100005.88
2022-09-18T12:05:23.907Z,99999.66
2022-09-18T12:08:34.981Z,99989.75
2022-09-18T12:11:50.552Z,99975.78
2022-09-18T12:14:39.531Z,99973.81
2022-09-18T12:17:44.825Z,99960.13
2022-09-18T12:20:40.519Z,99969.72
2022-09-18T12:23:18.766Z,99958.84
2022-09-18T12:26:48.569Z,99977.38
2022-09-18T12:29:39.113Z,99980.13
2022-09-18T12:32:33.766Z,99981.31
2022-09-18T12:36:05.173Z,99977.69
2022-09-18T12:39:26.225Z,99974.56
2022-09-18T12:42:20.998Z,99960.97
2022-09-18T12:45:26.572Z,99967.78
2022-09-18T12:48:06.998Z,99962.81
2022-09-18T12:50:58.776Z,99959.22
2022-09-18T12:53:56.394Z,99949.25
2022-09-18T12:56:55.291Z,99940.16
2022-09-18T13:00:08.182Z,99950.03
2022-09-18T13:03:20.076Z,99941.16
2022-09-18T13:06:00.324Z,99938.34
2022-09-18T13:08:56.209Z,99934.88
2022-09-18T13:12:14.988Z,99934.06
2022-09-18T13:14:58.798Z,99934.59
2022-09-18T13:17:44.158Z,99927.78
2022-09-18T13:20:22.591Z,99941.88
2022-09-18T13:22:53.426Z,99939.94
2022-09-18T13:25:37.155Z,99942.28
2022-09-18T13:28:15.114Z,99943.25
2022-09-18T13:30:43.003Z,99947.53
2022-09-18T13:33:25.732Z,99955.72
2022-09-18T13:35:58.183Z,99950.03
2022-09-18T13:38:28.761Z,99946.72
2022-09-18T13:41:07.698Z,99952.47
2022-09-18T13:43:45.446Z,99961.88
2022-09-18T13:46:41.265Z,99940.31
2022-09-18T13:49:32.452Z,99951.34
2022-09-18T13:52:33.214Z,99947.72
2022-09-18T13:55:25.204Z,99946.66
2022-09-18T13:58:31.020Z,99941.00
2022-09-18T14:01:00.993Z,99945.59
2022-09-18T14:03:28.100Z,99950.84
2022-09-18T14:05:55.393Z,99941.28
2022-09-18T14:08:24.699Z,99932.66
2022-09-18T14:11:15.529Z,99946.03
2022-09-18T14:13:52.412Z,99931.38
2022-09-18T14:16:19.365Z,99944.56
2022-09-18T14:18:49.176Z,99948.56
2022-09-18T14:21:19.074Z,99950.19
2022-09-18T14:23:48.403Z,99946.34
2022-09-18T14:26:30.320Z,99950.50
2022-09-18T14:29:10.103Z,99939.94
2022-09-18T14:31:44.645Z,99951.31
2022-09-18T14:34:44.321Z,99945.56
2022-09-18T14:37:32.970Z,99942.34
2022-09-18T14:40:00.658Z,99933.44
2022-09-18T14:42:38.216Z,99936.03
2022-09-18T14:45:14.236Z,99949.06
2022-09-18T14:47:47.323Z,99937.72
2022-09-18T14:50:37.664Z,99939.69
2022-09-18T14:53:28.776Z,99940.53
2022-09-18T14:56:07.080Z,99931.94
2022-09-18T14:58:47.817Z,99935.03
2022-09-18T15:01:24.272Z,99933.47
2022-09-18T15:03:54.601Z,99937.38
2022-09-18T15:06:43.353Z,99939.25
2022-09-18T15:09:14.280Z,99944.91
2022-09-18T15:12:01.679Z,99935.81
2022-09-18T15:14:44.026Z,99937.16
2022-09-18T15:17:28.208Z,99940.97
2022-09-18T15:20:16.807Z,99936.34
2022-09-18T15:22:43.860Z,99936.16
2022-09-18T15:25:22.400Z,99932.69
2022-09-18T15:27:52.007Z,99930.06
2022-09-18T15:30:23.157Z,99928.91
2022-09-18T15:33:06.382Z,99928.34
2022-09-18T15:35:38.081Z,99933.25
2022-09-18T15:38:18.512Z,99932.88
2022-09-18T15:40:47.283Z,99922.19
2022-09-18T15:43:33.945Z,99929.69
2022-09-18T15:46:24.503Z,99940.41
2022-09-18T15:48:52.012Z,99933.06
2022-09-18T15:51:34.632Z,99926.69
2022-09-18T15:54:26.799Z,99922.22
2022-09-18T15:57:00.996Z,99927.53
2022-09-18T15:59:37.736Z,99918.56
2022-09-18T16:02:29.618Z,99923.47
2022-09-18T16:04:56.786Z,99917.94
2022-09-18T16:07:27.209Z,99921.84
2022-09-18T16:09:54.924Z,99918.94
2022-09-18T16:12:30.842Z,99919.44
2022-09-18T16:15:23.205Z,99920.91
2022-09-18T16:17:55.554Z,99934.50
2022-09-18T16:20:34.076Z,99932.94
2022-09-18T16:23:34.132Z,99921.91
2022-09-18T16:26:36.290Z,99924.91
2022-09-18T16:29:23.123Z,99926.03
2022-09-18T16:31:50.153Z,99934.16
2022-09-18T16:34:23.663Z,99933.16
2022-09-18T16:36:51.889Z,99938.38
2022-09-18T16:39:23.730Z,99933.13
2022-09-18T16:41:50.794Z,99945.72
2022-09-18T16:44:18.808Z,99936.00
2022-09-18T16:47:00.378Z,99939.41
2022-09-18T16:49:42.905Z,99933.84
2022-09-18T16:52:10.916Z,99931.91
2022-09-18T16:54:37.863Z,99935.69
2022-09-18T16:57:18.314Z,99943.53
2022-09-18T16:59:45.845Z,99944.84
2022-09-18T17:02:18.061Z,99933.28
2022-09-18T17:04:45.011Z,99938.38
2022-09-18T17:07:12.095Z,99934.16
2022-09-18T17:09:38.997Z,99938.41
2022-09-18T17:12:06.252Z,99927.00
2022-09-18T17:14:34.685Z,99922.19
2022-09-18T17:17:01.874Z,99929.41
2022-09-18T17:19:28.856Z,99933.06
2022-09-18T17:21:56.573Z,99941.44
2022-09-18T17:24:26.142Z,99937.00
2022-09-18T17:26:53.888Z,99945.84
2022-09-18T17:29:21.201Z,99945.00
2022-09-18T17:31:48.200Z,99951.38
2022-09-18T17:34:16.590Z,99949.16
2022-09-18T17:36:43.547Z,99958.22
2022-09-18T17:39:10.997Z,99953.56
2022-09-18T17:41:39.206Z,99951.91
2022-09-18T17:44:06.623Z,99951.91
2022-09-18T17:46:33.621Z,99961.56
2022-09-18T17:49:01.523Z,99972.03
2022-09-18T17:51:29.332Z,99981.81
2022-09-18T17:54:05.397Z,99984.44
2022-09-18T17:56:33.720Z,99974.75
2022-09-18T17:59:14.060Z,99975.00
2022-09-18T18:01:46.994Z,99980.25
2022-09-18T18:04:15.306Z,99980.75
2022-09-18T18:06:42.802Z,99986.31
2022-09-18T18:09:10.015Z,99976.41
2022-09-18T18:11:37.984Z,99979.19
2022-09-18T18:14:05.674Z,99980.81
2022-09-18T18:16:34.407Z,99982.88
2022-09-18T18:19:05.717Z,99982.72
2022-09-18T18:21:34.715Z,99986.88
2022-09-18T18:24:08.861Z,99987.75
2022-09-18T18:26:38.576Z,99992.41
2022-09-18T18:29:12.994Z,99978.63
2022-09-18T18:31:43.161Z,99982.13
2022-09-18T18:34:11.780Z,99990.31
2022-09-18T18:36:41.658Z,99993.50
2022-09-18T18:39:12.195Z,99992.38
2022-09-18T18:41:40.978Z,100001.50
2022-09-18T18:44:08.156Z,99999.41
2022-09-18T18:46:37.138Z,100002.88
2022-09-18T18:49:12.191Z,99993.91
2022-09-18T18:51:43.700Z,99997.78
2022-09-18T18:54:12.065Z,99994.28
2022-09-18T18:56:40.428Z,99992.28
2022-09-18T18:59:12.548Z,99998.44
2022-09-18T19:01:40.085Z,99991.03
2022-09-18T19:04:12.412Z,99992.63
2022-09-18T19:06:43.520Z,99991.25
2022-09-18T19:09:24.367Z,99995.16
2022-09-18T19:11:52.955Z,99997.34
2022-09-18T19:14:31.434Z,100000.31
2022-09-18T19:16:59.108Z,100003.28
2022-09-18T19:19:28.336Z,99998.88
2022-09-18T19:21:59.718Z,99996.88
2022-09-18T19:24:28.193Z,100003.63
2022-09-18T19:26:58.885Z,99998.78
2022-09-18T19:29:26.070Z,99994.84
2022-09-18T19:31:53.162Z,99998.75
2022-09-18T19:34:22.068Z,99995.81
2022-09-18T19:36:50.045Z,100002.06
2022-09-18T19:39:20.880Z,100000.13
2022-09-18T19:42:05.331Z,99990.97
2022-09-18T19:44:46.892Z,99989.59
2022-09-18T19:47:40.877Z,99997.47
2022-09-18T19:50:25.009Z,99994.03
2022-09-18T19:52:51.986Z,99997.84
2022-09-18T19:55:20.855Z,100000.09
2022-09-18T19:57:54.821Z,99999.13
2022-09-18T20:00:22.118Z,99995.69
2022-09-18T20:02:50.041Z,99984.25
2022-09-18T20:05:17.100Z,99997.66
2022-09-18T20:07:44.319Z,100001.03
2022-09-18T20:10:14.760Z,99987.63
2022-09-18T20:12:42.443Z,99986.66
2022-09-18T20:15:11.559Z,99997.84
2022-09-18T20:17:39.179Z,100012.44
2022-09-18T20:20:08.997Z,99999.97
2022-09-18T20:22:39.737Z,99999.22
2022-09-18T20:25:08.286Z,99995.91
2022-09-18T20:27:41.706Z,100002.09
2022-09-18T20:30:12.583Z,99998.44
2022-09-18T20:32:39.861Z,100000.94
2022-09-18T20:35:07.508Z,100001.84
2022-09-18T20:37:34.448Z,99999.94
2022-09-18T20:40:03.304Z,99999.38
2022-09-18T20:42:32.236Z,100000.31
2022-09-18T20:45:04.154Z,100007.41
2022-09-18T20:47:37.102Z,100003.31
2022-09-18T20:50:13.248Z,100003.25
2022-09-18T20:52:43.605Z,99996.31
2022-09-18T20:55:16.271Z,100000.06
2022-09-18T20:57:46.428Z,99999.53
2022-09-18T21:00:16.190Z,100003.56
2022-09-18T21:02:44.145Z,100010.91
2022-09-18T21:05:14.581Z,100003.56
2022-09-18T21:07:44.381Z,100002.25
2022-09-18T21:10:14.354Z,100004.63
2022-09-18T21:12:41.461Z,99997.50
2022-09-18T21:15:16.030Z,99999.88
2022-09-18T21:17:43.169Z,99998.34
2022-09-18T21:20:10.429Z,99991.84
2022-09-18T21:22:57.354Z,99998.34
2022-09-18T21:25:25.016Z,99997.28
2022-09-18T21:27:55.418Z,99995.09
2022-09-18T21:30:26.110Z,100003.06
2022-09-18T21:32:55.792Z,99994.78
2022-09-18T21:35:22.892Z,100002.78
2022-09-18T21:37:49.805Z,99999.16
2022-09-18T21:40:16.863Z,100002.59
2022-09-18T21:42:47.531Z,99997.72
2022-09-18T21:45:20.577Z,99987.13
2022-09-18T21:47:49.967Z,99990.47
2022-09-18T21:50:16.980Z,99989.34
2022-09-18T21:52:44.254Z,100001.59
2022-09-18T21:55:11.405Z,99999.94
2022-09-18T21:57:38.541Z,100002.03
2022-09-18T22:00:09.078Z,99988.34
2022-09-18T22:02:36.494Z,100003.34
2022-09-18T22:05:11.678Z,99998.94
2022-09-18T22:07:43.523Z,100000.84
2022-09-18T22:10:10.623Z,100001.81
2022-09-18T22:12:38.970Z,100000.94
2022-09-18T22:15:06.808Z,100007.44
2022-09-18T22:17:33.774Z,100002.88
2022-09-18T22:20:00.730Z,99998.41
2022-09-18T22:22:28.027Z,100009.03
2022-09-18T22:24:55.958Z,100005.16
2022-09-18T22:27:24.111Z,100006.41
2022-09-18T22:29:51.101Z,100012.66
2022-09-18T22:32:18.057Z,100017.31
2022-09-18T22:34:45.043Z,100014.69
2022-09-18T22:37:12.094Z,100017.41
2022-09-18T22:39:39.055Z,100016.84
2022-09-18T22:42:06.066Z,100017.19
2022-09-18T22:44:33.013Z,100023.41
2022-09-18T22:47:00.041Z,100016.47
2022-09-18T22:49:26.980Z,100021.78
2022-09-18T22:51:54.690Z,100024.09
2022-09-18T22:54:26.488Z,100023.41
2022-09-18T22:56:55.173Z,100028.09
2022-09-18T22:59:25.596Z,100021.13
2022-09-18T23:02:00.192Z,100029.59
2022-09-18T23:04:30.993Z,100030.72
2022-09-18T23:06:59.304Z,100028.78
2022-09-18T23:09:27.390Z,100033.16
2022-09-18T23:11:55.251Z,100039.69
2022-09-18T23:14:27.661Z,100033.69
2022-09-18T23:16:56.741Z,100035.66
2022-09-18T23:19:31.811Z,100036.03
2022-09-18T23:21:59.525Z,100036.75
2022-09-18T23:24:27.514Z,100040.72
2022-09-18T23:26:58.169Z,100042.53
2022-09-18T23:29:28.314Z,100041.47
2022-09-18T23:31:57.455Z,100044.91
2022-09-18T23:34:31.667Z,100036.88
2022-09-18T23:37:00.159Z,100036.16
2022-09-18T23:39:33.785Z,100039.91
2022-09-18T23:42:03.160Z,100034.69
2022-09-18T23:44:31.550Z,100046.88
2022-09-18T23:47:00.186Z,100035.91
2022-09-18T23:49:28.541Z,100042.38
2022-09-18T23:51:59.867Z,100042.47
2022-09-18T23:54:31.117Z,100045.84
2022-09-18T23:56:58.510Z,100041.94
2022-09-18T23:59:27.164Z,100040.09
